Terminal Aerodrome Forecast
Issued by NWS

Home | Current Version | Previous Version | Text Only | Print | Product List | Glossary On
Versions: 1 2 3 4 5 6 7 8 9 10 11 12 13 14 15 16 17 18 19 20
000
FTUS41 KBTV 221729
TAFSLK
TAF
KSLK 221729Z 2218/2318 04004KT 6SM BR BKN020
     FM230200 15005KT P6SM VCSH OVC015
     FM230900 06003KT 2SM -RASN OVC015=

USA.gov is the U.S. government's official web portal to all federal, state and local government web resources and services.